createdAt,value
2022-10-09T00:00:28.080Z,7.14
2022-10-09T00:02:55.201Z,7.11
2022-10-09T00:05:23.836Z,7.03
2022-10-09T00:07:51.230Z,6.97
2022-10-09T00:10:18.579Z,6.95
2022-10-09T00:12:45.929Z,6.97
2022-10-09T00:15:13.738Z,6.96
2022-10-09T00:17:41.096Z,6.94
2022-10-09T00:20:08.922Z,6.91
2022-10-09T00:22:36.292Z,6.86
2022-10-09T00:25:03.683Z,6.79
2022-10-09T00:27:30.762Z,6.80
2022-10-09T00:29:58.341Z,6.74
2022-10-09T00:32:25.533Z,6.70
2022-10-09T00:34:52.745Z,6.70
2022-10-09T00:37:20.343Z,6.67
2022-10-09T00:39:47.414Z,6.63
2022-10-09T00:42:14.544Z,6.61
2022-10-09T00:45:00.206Z,6.60
2022-10-09T00:47:31.932Z,6.56
2022-10-09T00:50:16.165Z,6.52
2022-10-09T00:52:43.995Z,6.45
2022-10-09T00:55:12.625Z,6.44
2022-10-09T00:57:40.434Z,6.43
2022-10-09T01:00:10.556Z,6.44
2022-10-09T01:02:39.031Z,6.45
2022-10-09T01:05:08.036Z,6.47
2022-10-09T01:07:34.998Z,6.49
2022-10-09T01:10:33.722Z,6.45
2022-10-09T01:13:27.920Z,6.42
2022-10-09T01:16:20.369Z,6.42
2022-10-09T01:19:01.706Z,6.42
2022-10-09T01:21:36.650Z,6.37
2022-10-09T01:24:06.718Z,6.40
2022-10-09T01:26:55.256Z,6.39
2022-10-09T01:29:24.768Z,6.39
2022-10-09T01:31:51.961Z,6.40
2022-10-09T01:34:20.137Z,6.34
2022-10-09T01:36:47.569Z,6.32
2022-10-09T01:39:20.072Z,6.33
2022-10-09T01:41:48.426Z,6.37
2022-10-09T01:44:18.147Z,6.31
2022-10-09T01:46:45.422Z,6.25
2022-10-09T01:49:21.440Z,6.17
2022-10-09T01:51:52.506Z,6.12
2022-10-09T01:54:33.253Z,6.11
2022-10-09T01:57:02.850Z,6.08
2022-10-09T01:59:30.652Z,6.05
2022-10-09T02:01:59.313Z,6.04
2022-10-09T02:04:27.546Z,6.03
2022-10-09T02:06:54.824Z,5.98
2022-10-09T02:09:22.263Z,5.96
2022-10-09T02:11:54.777Z,5.88
2022-10-09T02:14:22.083Z,5.90
2022-10-09T02:17:14.548Z,5.87
2022-10-09T02:19:46.370Z,5.88
2022-10-09T02:22:17.816Z,5.87
2022-10-09T02:24:45.063Z,5.87
2022-10-09T02:27:13.424Z,5.87
2022-10-09T02:29:45.077Z,5.88
2022-10-09T02:32:12.403Z,5.85
2022-10-09T02:34:39.586Z,5.86
2022-10-09T02:37:07.265Z,5.83
2022-10-09T02:39:34.595Z,5.82
2022-10-09T02:42:01.818Z,5.78
2022-10-09T02:44:28.878Z,5.74
2022-10-09T02:46:55.979Z,5.68
2022-10-09T02:49:23.055Z,5.67
2022-10-09T02:51:50.286Z,5.60
2022-10-09T02:54:17.550Z,5.61
2022-10-09T02:56:44.850Z,5.53
2022-10-09T02:59:11.979Z,5.50
2022-10-09T03:01:39.171Z,5.45
2022-10-09T03:04:06.441Z,5.48
2022-10-09T03:06:34.008Z,5.50
2022-10-09T03:09:01.663Z,5.50
2022-10-09T03:11:28.771Z,5.49
2022-10-09T03:13:56.220Z,5.51
2022-10-09T03:16:24.875Z,5.49
2022-10-09T03:18:53.278Z,5.45
2022-10-09T03:21:23.110Z,5.43
2022-10-09T03:23:50.912Z,5.40
2022-10-09T03:26:20.125Z,5.36
2022-10-09T03:28:49.120Z,5.35
2022-10-09T03:31:39.238Z,5.30
2022-10-09T03:34:04.884Z,5.26
2022-10-09T03:36:31.923Z,5.27
2022-10-09T03:38:58.990Z,5.28
2022-10-09T03:41:26.133Z,5.23
2022-10-09T03:43:53.194Z,5.18
2022-10-09T03:46:20.508Z,5.16
2022-10-09T03:48:48.084Z,5.16
2022-10-09T03:51:15.178Z,5.18
2022-10-09T03:53:42.235Z,5.15
2022-10-09T03:56:09.338Z,5.14
2022-10-09T03:58:36.654Z,5.12
2022-10-09T04:01:03.831Z,5.10
2022-10-09T04:03:30.953Z,5.11
2022-10-09T04:05:58.020Z,5.01
2022-10-09T04:08:25.276Z,4.98
2022-10-09T04:10:59.615Z,4.96
2022-10-09T04:13:26.931Z,4.88
2022-10-09T04:15:54.664Z,4.88
2022-10-09T04:18:22.141Z,4.89
2022-10-09T04:20:56.433Z,4.92
2022-10-09T04:23:25.485Z,4.95
2022-10-09T04:25:58.409Z,4.90
2022-10-09T04:28:26.738Z,4.85
2022-10-09T04:30:53.887Z,4.83
2022-10-09T04:33:21.150Z,4.82
2022-10-09T04:35:51.564Z,4.78
2022-10-09T04:38:19.825Z,4.78
2022-10-09T04:41:04.613Z,4.78
2022-10-09T04:43:32.700Z,4.79
2022-10-09T04:46:04.279Z,4.75
2022-10-09T04:48:31.354Z,4.78
2022-10-09T04:50:58.499Z,4.77
2022-10-09T04:53:25.581Z,4.78
2022-10-09T04:55:52.681Z,4.75
2022-10-09T04:58:19.788Z,4.72
2022-10-09T05:00:47.074Z,4.68
2022-10-09T05:03:14.207Z,4.65
2022-10-09T05:05:41.672Z,4.62
2022-10-09T05:08:08.783Z,4.58
2022-10-09T05:10:35.918Z,4.57
2022-10-09T05:13:03.175Z,4.54
2022-10-09T05:15:30.623Z,4.50
2022-10-09T05:17:58.054Z,4.52
2022-10-09T05:20:25.156Z,4.55
2022-10-09T05:22:52.706Z,4.53
2022-10-09T05:25:19.970Z,4.53
2022-10-09T05:27:47.013Z,4.54
2022-10-09T05:30:14.077Z,4.57
2022-10-09T05:32:41.285Z,4.56
2022-10-09T05:35:08.630Z,4.55
2022-10-09T05:37:35.678Z,4.56
2022-10-09T05:40:02.914Z,4.56
2022-10-09T05:42:30.096Z,4.55
2022-10-09T05:44:57.469Z,4.57
2022-10-09T05:47:24.550Z,4.59
2022-10-09T05:49:51.625Z,4.58
2022-10-09T05:52:18.724Z,4.54
2022-10-09T05:54:45.865Z,4.54
2022-10-09T05:57:13.095Z,4.55
2022-10-09T05:59:40.193Z,4.56
2022-10-09T06:02:07.466Z,4.56
2022-10-09T06:04:34.627Z,4.56
2022-10-09T06:07:01.708Z,4.59
2022-10-09T06:09:29.369Z,4.63
2022-10-09T06:11:56.442Z,4.66
2022-10-09T06:14:24.503Z,4.67
2022-10-09T06:16:51.823Z,4.73
2022-10-09T06:19:20.010Z,4.83
2022-10-09T06:21:47.734Z,4.90
2022-10-09T06:24:27.256Z,4.95
2022-10-09T06:26:56.876Z,5.00
2022-10-09T06:29:24.175Z,5.03
2022-10-09T06:31:51.249Z,5.05
2022-10-09T06:34:18.375Z,5.13
2022-10-09T06:36:45.921Z,5.22
2022-10-09T06:39:13.095Z,5.29
2022-10-09T06:41:40.274Z,5.37
2022-10-09T06:44:16.060Z,5.44
2022-10-09T06:46:45.029Z,5.53
2022-10-09T06:49:12.663Z,5.60
2022-10-09T06:51:39.955Z,5.68
2022-10-09T06:54:11.992Z,5.72
2022-10-09T06:56:39.205Z,5.83
2022-10-09T06:59:07.811Z,5.93
2022-10-09T07:01:35.350Z,6.04
2022-10-09T07:04:07.105Z,6.18
2022-10-09T07:06:37.644Z,6.32
2022-10-09T07:09:06.978Z,6.45
2022-10-09T07:11:36.421Z,6.59
2022-10-09T07:14:05.660Z,6.74
2022-10-09T07:16:35.169Z,6.84
2022-10-09T07:19:06.470Z,6.98
2022-10-09T07:21:34.440Z,7.17
2022-10-09T07:24:02.486Z,7.32
2022-10-09T07:26:32.327Z,7.45
2022-10-09T07:28:59.539Z,7.56
2022-10-09T07:31:26.793Z,7.68
2022-10-09T07:33:56.537Z,7.75
2022-10-09T07:36:24.057Z,7.84
2022-10-09T07:38:53.498Z,7.91
2022-10-09T07:41:21.624Z,8.00
2022-10-09T07:43:48.796Z,8.12
2022-10-09T07:46:18.708Z,8.25
2022-10-09T07:48:46.609Z,8.40
2022-10-09T07:51:19.976Z,8.52
2022-10-09T07:53:47.638Z,8.65
2022-10-09T07:56:20.668Z,8.77
2022-10-09T07:58:51.942Z,8.90
2022-10-09T08:01:20.590Z,9.01
2022-10-09T08:03:48.474Z,9.10
2022-10-09T08:06:16.468Z,9.23
2022-10-09T08:08:43.813Z,9.33
2022-10-09T08:11:13.206Z,9.42
2022-10-09T08:13:40.978Z,9.53
2022-10-09T08:16:08.684Z,9.70
2022-10-09T08:18:36.499Z,9.86
2022-10-09T08:21:09.205Z,10.01
2022-10-09T08:23:36.490Z,10.11
2022-10-09T08:26:04.000Z,10.19
2022-10-09T08:28:31.324Z,10.29
2022-10-09T08:30:58.491Z,10.43
2022-10-09T08:33:26.037Z,10.50
2022-10-09T08:35:54.383Z,10.61
2022-10-09T08:38:45.667Z,10.62
2022-10-09T08:41:15.153Z,10.80
2022-10-09T08:43:48.556Z,10.98
2022-10-09T08:46:26.813Z,11.14
2022-10-09T08:48:54.312Z,11.28
2022-10-09T08:51:26.843Z,11.33
2022-10-09T08:53:59.179Z,11.40
2022-10-09T08:56:27.147Z,11.54
2022-10-09T08:58:55.553Z,11.68
2022-10-09T09:01:36.412Z,11.73
2022-10-09T09:04:22.277Z,11.83
2022-10-09T09:07:04.523Z,11.87
2022-10-09T09:09:46.419Z,11.94
2022-10-09T09:12:44.585Z,12.05
2022-10-09T09:15:22.304Z,12.13
2022-10-09T09:18:07.516Z,12.19
2022-10-09T09:20:53.444Z,12.30
2022-10-09T09:23:29.096Z,12.42
2022-10-09T09:25:56.768Z,12.52
2022-10-09T09:28:34.115Z,12.65
2022-10-09T09:31:37.253Z,12.72
2022-10-09T09:34:10.659Z,12.83
2022-10-09T09:36:52.594Z,12.92
2022-10-09T09:42:18.217Z,13.04
2022-10-09T09:44:59.933Z,13.12
2022-10-09T09:47:39.357Z,13.20
2022-10-09T09:50:15.052Z,13.20
2022-10-09T09:52:52.053Z,13.26
2022-10-09T09:55:27.846Z,13.36
2022-10-09T09:58:06.548Z,13.36
2022-10-09T10:00:35.143Z,13.42
2022-10-09T10:03:16.499Z,13.38
2022-10-09T10:05:44.689Z,13.33
2022-10-09T10:08:34.938Z,13.33
2022-10-09T10:11:06.327Z,13.40
2022-10-09T10:13:38.747Z,13.49
2022-10-09T10:16:07.637Z,13.58
2022-10-09T10:18:39.921Z,13.66
2022-10-09T10:21:15.139Z,13.76
2022-10-09T10:26:53.265Z,13.84
2022-10-09T10:29:41.728Z,13.94
2022-10-09T10:32:16.091Z,14.01
2022-10-09T10:34:55.763Z,14.02
2022-10-09T10:37:38.795Z,14.06
2022-10-09T10:40:27.653Z,14.12
2022-10-09T10:43:13.920Z,14.14
2022-10-09T10:45:43.891Z,14.17
2022-10-09T10:48:19.775Z,14.13
2022-10-09T10:50:53.260Z,14.16
2022-10-09T10:53:56.595Z,14.20
2022-10-09T10:56:31.580Z,14.09
2022-10-09T10:59:07.864Z,14.03
2022-10-09T11:01:52.901Z,14.11
2022-10-09T11:04:57.326Z,14.19
2022-10-09T11:08:00.054Z,14.32
2022-10-09T11:10:37.912Z,14.42
2022-10-09T11:13:23.967Z,14.39
2022-10-09T11:16:28.735Z,14.38
2022-10-09T11:19:10.935Z,14.42
2022-10-09T11:22:05.925Z,14.48
2022-10-09T11:24:37.150Z,14.49
2022-10-09T11:27:14.884Z,14.53
2022-10-09T11:29:52.944Z,14.60
2022-10-09T11:32:43.085Z,14.49
2022-10-09T11:35:21.405Z,14.51
2022-10-09T11:37:56.401Z,14.61
2022-10-09T11:40:27.752Z,14.69
2022-10-09T11:43:08.855Z,14.81
2022-10-09T11:46:01.850Z,14.83
2022-10-09T11:48:32.771Z,14.88
2022-10-09T11:50:59.823Z,14.95
2022-10-09T11:53:28.974Z,14.85
2022-10-09T11:56:23.965Z,14.80
2022-10-09T11:59:02.813Z,14.83
2022-10-09T12:01:47.511Z,14.83
2022-10-09T12:04:20.875Z,14.79
2022-10-09T12:07:00.328Z,14.78
2022-10-09T12:09:28.564Z,14.88
2022-10-09T12:12:02.319Z,14.92
2022-10-09T12:14:30.483Z,14.94
2022-10-09T12:17:00.079Z,14.96
2022-10-09T12:19:30.964Z,14.94
2022-10-09T12:22:17.484Z,14.92
2022-10-09T12:24:47.138Z,14.94
2022-10-09T12:27:35.629Z,14.89
2022-10-09T12:30:12.552Z,14.93
2022-10-09T12:32:43.813Z,15.04
2022-10-09T12:35:24.546Z,15.17
2022-10-09T12:37:52.392Z,15.28
2022-10-09T12:40:30.712Z,15.19
2022-10-09T12:42:58.770Z,15.16
2022-10-09T12:45:30.004Z,15.10
2022-10-09T12:47:59.134Z,15.10
2022-10-09T12:50:35.833Z,15.17
2022-10-09T12:53:13.423Z,15.18
2022-10-09T12:55:45.912Z,15.16
2022-10-09T12:58:24.253Z,15.19
2022-10-09T13:00:53.886Z,15.17
2022-10-09T13:03:43.923Z,15.16
2022-10-09T13:06:19.176Z,15.09
2022-10-09T13:08:52.177Z,15.02
2022-10-09T13:11:29.873Z,14.99
2022-10-09T13:13:56.952Z,14.93
2022-10-09T13:16:24.799Z,14.91
2022-10-09T13:18:56.386Z,14.89
2022-10-09T13:21:29.015Z,14.89
2022-10-09T13:24:13.175Z,14.95
2022-10-09T13:26:42.932Z,14.99
2022-10-09T13:29:11.782Z,15.04
2022-10-09T13:31:42.968Z,14.99
2022-10-09T13:34:12.297Z,14.93
2022-10-09T13:36:39.461Z,14.90
2022-10-09T13:39:06.896Z,14.94
2022-10-09T13:41:34.045Z,14.96
2022-10-09T13:44:01.148Z,14.99
2022-10-09T13:46:28.271Z,14.94
2022-10-09T13:48:55.429Z,14.90
2022-10-09T13:51:22.568Z,14.88
2022-10-09T13:53:49.906Z,14.86
2022-10-09T13:56:16.981Z,14.88
2022-10-09T13:58:44.101Z,14.86
2022-10-09T14:01:11.342Z,14.89
2022-10-09T14:03:38.461Z,14.88
2022-10-09T14:06:06.042Z,14.84
2022-10-09T14:08:33.108Z,14.82
2022-10-09T14:11:01.233Z,14.82
2022-10-09T14:13:28.742Z,14.76
2022-10-09T14:15:56.203Z,14.75
2022-10-09T14:18:23.275Z,14.69
2022-10-09T14:20:50.520Z,14.66
2022-10-09T14:23:17.607Z,14.65
2022-10-09T14:25:44.779Z,14.65
2022-10-09T14:28:11.948Z,14.69
2022-10-09T14:30:43.673Z,14.73
2022-10-09T14:33:12.424Z,14.70
2022-10-09T14:35:39.842Z,14.69
2022-10-09T14:38:07.017Z,14.68
2022-10-09T14:40:34.158Z,14.70
2022-10-09T14:43:01.255Z,14.68
2022-10-09T14:45:29.023Z,14.64
2022-10-09T14:47:56.874Z,14.63
2022-10-09T14:50:24.184Z,14.64
2022-10-09T14:52:51.869Z,14.67
2022-10-09T14:55:19.424Z,14.66
2022-10-09T14:57:46.507Z,14.65
2022-10-09T15:00:14.196Z,14.61
2022-10-09T15:05:13.512Z,14.61
2022-10-09T15:07:40.925Z,14.55
2022-10-09T15:10:08.389Z,14.44
2022-10-09T15:12:35.893Z,14.38
2022-10-09T15:15:03.005Z,14.32
2022-10-09T15:17:30.185Z,14.27
2022-10-09T15:19:57.336Z,14.23
2022-10-09T15:22:24.515Z,14.19
2022-10-09T15:24:51.669Z,14.16
2022-10-09T15:27:18.927Z,14.13
2022-10-09T15:29:46.006Z,14.11
2022-10-09T15:32:16.817Z,14.07
2022-10-09T15:34:44.093Z,14.02
2022-10-09T15:37:11.323Z,13.98
2022-10-09T15:39:38.439Z,13.96
2022-10-09T15:42:08.742Z,13.92
2022-10-09T15:44:35.857Z,13.85
2022-10-09T15:47:03.217Z,13.79
2022-10-09T15:49:30.340Z,13.74
2022-10-09T15:51:57.525Z,13.66
2022-10-09T15:54:24.598Z,13.61
2022-10-09T15:56:51.711Z,13.53
2022-10-09T15:59:18.809Z,13.49
2022-10-09T16:01:46.098Z,13.43
2022-10-09T16:04:14.265Z,13.39
2022-10-09T16:06:41.615Z,13.36
2022-10-09T16:09:08.780Z,13.30
2022-10-09T16:11:35.890Z,13.25
2022-10-09T16:14:04.341Z,13.21
2022-10-09T16:16:31.519Z,13.13
2022-10-09T16:19:00.100Z,13.05
2022-10-09T16:21:28.002Z,13.01
2022-10-09T16:23:58.838Z,12.96
2022-10-09T16:26:28.097Z,12.85
2022-10-09T16:28:56.035Z,12.81
2022-10-09T16:31:31.815Z,12.76
2022-10-09T16:33:59.577Z,12.71
2022-10-09T16:36:27.136Z,12.68
2022-10-09T16:38:54.918Z,12.66
2022-10-09T16:41:23.956Z,12.65
2022-10-09T16:43:53.026Z,12.63
2022-10-09T16:49:02.690Z,12.61
2022-10-09T16:51:32.822Z,12.60
2022-10-09T16:54:01.688Z,12.58
2022-10-09T16:56:33.172Z,12.55
2022-10-09T16:59:02.563Z,12.47
2022-10-09T17:01:30.696Z,12.41
2022-10-09T17:03:58.729Z,12.28
2022-10-09T17:06:26.577Z,12.16
2022-10-09T17:08:56.166Z,12.10
2022-10-09T17:11:24.278Z,12.02
2022-10-09T17:13:53.423Z,12.00
2022-10-09T17:16:21.899Z,11.93
2022-10-09T17:18:49.370Z,11.88
2022-10-09T17:21:17.981Z,11.81
2022-10-09T17:23:46.754Z,11.76
2022-10-09T17:26:17.010Z,11.74
2022-10-09T17:28:45.814Z,11.67
2022-10-09T17:31:15.671Z,11.63
2022-10-09T17:33:46.374Z,11.56
2022-10-09T17:36:19.411Z,11.50
2022-10-09T17:38:47.765Z,11.45
2022-10-09T17:41:17.317Z,11.39
2022-10-09T17:43:44.609Z,11.31
2022-10-09T17:46:14.999Z,11.29
2022-10-09T17:48:45.203Z,11.21
2022-10-09T17:51:27.215Z,11.11
2022-10-09T17:56:25.617Z,11.03
2022-10-09T17:58:52.878Z,11.02
2022-10-09T18:01:20.080Z,11.03
2022-10-09T18:03:47.219Z,11.00
2022-10-09T18:06:17.076Z,10.94
2022-10-09T18:08:44.575Z,10.92
2022-10-09T18:11:14.673Z,10.86
2022-10-09T18:13:43.351Z,10.83
2022-10-09T18:16:17.480Z,10.82
2022-10-09T18:18:45.018Z,10.75
2022-10-09T18:21:16.961Z,10.73
2022-10-09T18:23:46.894Z,10.69
2022-10-09T18:26:16.554Z,10.57
2022-10-09T18:28:48.346Z,10.50
2022-10-09T18:31:21.223Z,10.48
2022-10-09T18:33:48.495Z,10.44
2022-10-09T18:36:19.729Z,10.34
2022-10-09T18:38:51.985Z,10.28
2022-10-09T18:41:20.249Z,10.23
2022-10-09T18:43:48.409Z,10.13
2022-10-09T18:46:16.754Z,10.04
2022-10-09T18:48:44.904Z,9.96
2022-10-09T18:51:16.554Z,9.88
2022-10-09T18:53:45.765Z,9.79
2022-10-09T18:56:16.636Z,9.69
2022-10-09T18:58:43.768Z,9.59
2022-10-09T19:01:10.941Z,9.48
2022-10-09T19:03:38.059Z,9.39
2022-10-09T19:06:05.392Z,9.29
2022-10-09T19:08:34.294Z,9.23
2022-10-09T19:11:02.264Z,9.13
2022-10-09T19:13:29.756Z,9.06
2022-10-09T19:16:05.055Z,9.02
2022-10-09T19:18:35.337Z,8.98
2022-10-09T19:21:03.252Z,8.93
2022-10-09T19:23:30.637Z,8.86
2022-10-09T19:25:58.844Z,8.82
2022-10-09T19:28:31.015Z,8.76
2022-10-09T19:30:59.206Z,8.70
2022-10-09T19:33:26.526Z,8.59
2022-10-09T19:35:56.148Z,8.53
2022-10-09T19:38:25.532Z,8.47
2022-10-09T19:40:54.530Z,8.47
2022-10-09T19:43:23.571Z,8.43
2022-10-09T19:46:07.165Z,8.39
2022-10-09T19:48:34.911Z,8.40
2022-10-09T19:51:19.704Z,8.37
2022-10-09T19:53:47.746Z,8.34
2022-10-09T19:56:20.534Z,8.34
2022-10-09T19:58:48.693Z,8.32
2022-10-09T20:01:18.233Z,8.33
2022-10-09T20:03:45.817Z,8.30
2022-10-09T20:06:13.258Z,8.26
2022-10-09T20:08:41.345Z,8.21
2022-10-09T20:11:11.290Z,8.24
2022-10-09T20:13:40.027Z,8.20
2022-10-09T20:16:10.506Z,8.13
2022-10-09T20:18:42.278Z,8.10
2022-10-09T20:21:14.970Z,8.06
2022-10-09T20:23:43.107Z,8.01
2022-10-09T20:26:15.780Z,7.94
2022-10-09T20:28:43.983Z,7.90
2022-10-09T20:31:18.077Z,7.90
2022-10-09T20:33:46.457Z,7.83
2022-10-09T20:36:35.390Z,7.76
2022-10-09T20:39:05.909Z,7.76
2022-10-09T20:41:33.084Z,7.72
2022-10-09T20:44:01.334Z,7.69
2022-10-09T20:46:31.217Z,7.68
2022-10-09T20:48:58.842Z,7.69
2022-10-09T20:51:25.963Z,7.79
2022-10-09T20:53:58.648Z,7.86
2022-10-09T20:56:28.101Z,7.82
2022-10-09T20:58:56.010Z,7.98
2022-10-09T21:01:23.758Z,8.31
2022-10-09T21:03:51.243Z,8.53
2022-10-09T21:06:20.493Z,8.66
2022-10-09T21:08:48.004Z,8.79
2022-10-09T21:11:17.165Z,8.92
2022-10-09T21:13:45.149Z,9.07
2022-10-09T21:16:14.758Z,9.17
2022-10-09T21:18:41.897Z,9.29
2022-10-09T21:21:14.823Z,9.41
2022-10-09T21:23:42.564Z,9.47
2022-10-09T21:26:14.696Z,9.52
2022-10-09T21:28:42.260Z,9.61
2022-10-09T21:31:19.631Z,9.61
2022-10-09T21:33:47.193Z,9.58
2022-10-09T21:36:26.545Z,9.59
2022-10-09T21:38:53.612Z,9.59
2022-10-09T21:41:20.721Z,9.62
2022-10-09T21:43:47.818Z,9.63
2022-10-09T21:46:15.126Z,9.68
2022-10-09T21:48:42.231Z,9.70
2022-10-09T21:51:09.386Z,9.70
2022-10-09T21:53:36.477Z,9.75
2022-10-09T21:56:04.643Z,9.79
2022-10-09T21:58:31.739Z,9.77
2022-10-09T22:01:00.873Z,9.74
2022-10-09T22:03:30.153Z,9.73
2022-10-09T22:05:57.213Z,9.68
2022-10-09T22:08:24.532Z,9.60
2022-10-09T22:10:52.313Z,9.55
2022-10-09T22:13:23.131Z,9.48
2022-10-09T22:15:51.343Z,9.45
2022-10-09T22:18:19.567Z,9.42
2022-10-09T22:20:49.212Z,9.37
2022-10-09T22:23:18.453Z,9.28
2022-10-09T22:25:55.666Z,9.35
2022-10-09T22:28:23.095Z,9.33
2022-10-09T22:31:04.231Z,9.34
2022-10-09T22:33:31.389Z,9.33
2022-10-09T22:36:05.687Z,9.32
2022-10-09T22:38:33.522Z,9.27
2022-10-09T22:41:20.408Z,9.29
2022-10-09T22:43:50.165Z,9.30
2022-10-09T22:46:23.787Z,9.39
2022-10-09T22:48:51.397Z,9.47
2022-10-09T22:51:20.040Z,9.55
2022-10-09T22:53:47.925Z,9.67
2022-10-09T22:56:19.870Z,9.73
2022-10-09T22:58:48.033Z,9.78
2022-10-09T23:01:31.163Z,9.88
2022-10-09T23:03:59.980Z,10.00
2022-10-09T23:06:27.251Z,10.08
2022-10-09T23:08:54.561Z,10.16
2022-10-09T23:11:22.824Z,10.24
2022-10-09T23:13:58.131Z,10.24
2022-10-09T23:16:26.443Z,10.28
2022-10-09T23:18:54.053Z,10.28
2022-10-09T23:21:22.843Z,10.26
2022-10-09T23:23:50.571Z,10.30
2022-10-09T23:26:21.197Z,10.37
2022-10-09T23:28:53.996Z,10.40
2022-10-09T23:31:21.357Z,10.44
2022-10-09T23:33:48.639Z,10.47
2022-10-09T23:36:18.544Z,10.48
2022-10-09T23:38:45.928Z,10.49
2022-10-09T23:41:15.717Z,10.50
2022-10-09T23:43:44.101Z,10.51
2022-10-09T23:46:22.681Z,10.55
2022-10-09T23:48:50.259Z,10.52
2022-10-09T23:51:18.707Z,10.54
2022-10-09T23:53:46.598Z,10.52
2022-10-09T23:56:23.186Z,10.54
2022-10-09T23:58:50.915Z,10.56
